createdAt,value
2023-04-30T00:02:20.715Z,8.99
2023-04-30T00:04:47.863Z,8.95
2023-04-30T00:07:14.852Z,8.91
2023-04-30T00:09:41.828Z,8.87
2023-04-30T00:12:08.827Z,8.81
2023-04-30T00:14:36.870Z,8.77
2023-04-30T00:17:03.742Z,8.75
2023-04-30T00:19:30.803Z,8.72
2023-04-30T00:21:57.675Z,8.68
2023-04-30T00:24:24.635Z,8.62
2023-04-30T00:26:51.773Z,8.60
2023-04-30T00:29:18.679Z,8.54
2023-04-30T00:31:46.200Z,8.53
2023-04-30T00:34:13.166Z,8.43
2023-04-30T00:36:40.798Z,8.34
2023-04-30T00:39:07.742Z,8.30
2023-04-30T00:41:35.950Z,8.29
2023-04-30T00:44:03.069Z,8.31
2023-04-30T00:46:31.204Z,8.34
2023-04-30T00:48:58.534Z,8.21
2023-04-30T00:51:25.517Z,8.18
2023-04-30T00:53:52.397Z,8.17
2023-04-30T00:56:19.420Z,8.14
2023-04-30T00:58:46.435Z,8.13
2023-04-30T01:01:13.679Z,8.12
2023-04-30T01:03:40.900Z,8.10
2023-04-30T01:06:07.918Z,8.05
2023-04-30T01:08:35.086Z,8.02
2023-04-30T01:11:31.498Z,8.02
2023-04-30T01:14:19.896Z,8.02
2023-04-30T01:16:49.497Z,8.06
2023-04-30T01:19:39.254Z,8.11
2023-04-30T01:22:06.564Z,8.15
2023-04-30T01:25:03.182Z,8.16
2023-04-30T01:28:01.038Z,8.19
2023-04-30T01:30:28.057Z,8.28
2023-04-30T01:32:54.963Z,8.37
2023-04-30T01:35:22.492Z,8.46
2023-04-30T01:38:22.293Z,8.59
2023-04-30T01:41:33.206Z,8.68
2023-04-30T01:44:21.691Z,8.77
2023-04-30T01:47:29.311Z,8.87
2023-04-30T01:50:17.287Z,8.89
2023-04-30T01:52:50.768Z,8.96
2023-04-30T01:55:23.621Z,9.04
2023-04-30T01:57:59.940Z,9.10
2023-04-30T02:00:27.702Z,9.15
2023-04-30T02:02:54.752Z,9.19
2023-04-30T02:05:21.995Z,9.21
2023-04-30T02:07:51.043Z,9.24
2023-04-30T02:10:20.634Z,9.26
2023-04-30T02:12:47.476Z,9.33
2023-04-30T02:15:15.370Z,9.38
2023-04-30T02:17:42.360Z,9.47
2023-04-30T02:20:09.828Z,9.52
2023-04-30T02:22:37.134Z,9.61
2023-04-30T02:25:04.516Z,9.65
2023-04-30T02:27:32.834Z,9.68
2023-04-30T02:29:59.973Z,9.75
2023-04-30T02:32:27.164Z,9.79
2023-04-30T02:34:54.277Z,9.83
2023-04-30T02:37:21.419Z,9.87
2023-04-30T02:39:48.642Z,9.90
2023-04-30T02:42:15.789Z,9.98
2023-04-30T02:44:42.845Z,10.03
2023-04-30T02:47:09.960Z,10.03
2023-04-30T02:49:37.018Z,10.03
2023-04-30T02:52:04.221Z,9.95
2023-04-30T02:54:31.260Z,9.88
2023-04-30T02:56:58.321Z,9.85
2023-04-30T02:59:25.373Z,9.80
2023-04-30T03:01:52.781Z,9.77
2023-04-30T03:04:20.032Z,9.74
2023-04-30T03:06:47.059Z,9.71
2023-04-30T03:09:14.386Z,9.72
2023-04-30T03:11:41.320Z,9.69
2023-04-30T03:14:08.473Z,9.66
2023-04-30T03:16:35.784Z,9.63
2023-04-30T03:19:02.903Z,9.68
2023-04-30T03:21:30.070Z,9.63
2023-04-30T03:23:57.070Z,9.61
2023-04-30T03:26:24.025Z,9.63
2023-04-30T03:28:51.408Z,9.67
2023-04-30T03:31:18.455Z,9.62
2023-04-30T03:33:45.806Z,9.64
2023-04-30T03:36:13.480Z,9.65
2023-04-30T03:38:42.360Z,9.61
2023-04-30T03:41:09.312Z,9.59
2023-04-30T03:43:37.320Z,9.61
2023-04-30T03:46:04.451Z,9.62
2023-04-30T03:48:31.718Z,9.57
2023-04-30T03:50:58.752Z,9.51
2023-04-30T03:53:26.891Z,9.45
2023-04-30T03:55:54.447Z,9.40
2023-04-30T03:58:22.015Z,9.35
2023-04-30T04:00:49.145Z,9.29
2023-04-30T04:03:16.468Z,9.26
2023-04-30T04:05:43.574Z,9.27
2023-04-30T04:08:10.831Z,9.24
2023-04-30T04:10:38.657Z,9.30
2023-04-30T04:13:06.773Z,9.30
2023-04-30T04:15:34.601Z,9.36
2023-04-30T04:18:01.570Z,9.40
2023-04-30T04:20:30.348Z,9.44
2023-04-30T04:22:57.465Z,9.52
2023-04-30T04:25:25.483Z,9.51
2023-04-30T04:27:52.759Z,9.48
2023-04-30T04:30:19.785Z,9.47
2023-04-30T04:32:49.529Z,9.49
2023-04-30T04:35:16.777Z,9.51
2023-04-30T04:37:43.721Z,9.51
2023-04-30T04:40:12.724Z,9.50
2023-04-30T04:42:39.782Z,9.53
2023-04-30T04:45:08.176Z,9.55
2023-04-30T04:47:35.183Z,9.62
2023-04-30T04:50:02.671Z,9.71
2023-04-30T04:52:29.697Z,9.77
2023-04-30T04:54:56.766Z,9.80
2023-04-30T04:57:23.882Z,9.88
2023-04-30T04:59:51.151Z,10.00
2023-04-30T05:02:18.428Z,10.20
2023-04-30T05:04:47.424Z,10.46
2023-04-30T05:07:14.341Z,10.74
2023-04-30T05:09:41.253Z,10.96
2023-04-30T05:12:08.135Z,11.16
2023-04-30T05:14:35.169Z,11.37
2023-04-30T05:17:02.074Z,11.56
2023-04-30T05:19:28.923Z,11.84
2023-04-30T05:21:55.733Z,12.07
2023-04-30T05:24:22.719Z,12.34
2023-04-30T05:26:49.637Z,12.58
2023-04-30T05:29:16.466Z,12.70
2023-04-30T05:31:43.499Z,12.83
2023-04-30T05:34:10.503Z,12.89
2023-04-30T05:36:37.903Z,13.00
2023-04-30T05:39:04.850Z,13.08
2023-04-30T05:41:31.730Z,13.03
2023-04-30T05:43:58.619Z,13.02
2023-04-30T05:46:25.633Z,13.04
2023-04-30T05:48:52.652Z,13.00
2023-04-30T05:51:19.591Z,12.97
2023-04-30T05:53:46.464Z,12.95
2023-04-30T05:56:13.613Z,12.94
2023-04-30T05:58:40.949Z,12.94
2023-04-30T06:01:11.197Z,12.93
2023-04-30T06:03:38.810Z,12.99
2023-04-30T06:06:05.838Z,13.08
2023-04-30T06:08:32.740Z,13.11
2023-04-30T06:11:00.700Z,13.02
2023-04-30T06:13:27.640Z,12.92
2023-04-30T06:15:54.751Z,13.01
2023-04-30T06:18:21.739Z,13.14
2023-04-30T06:20:48.687Z,13.19
2023-04-30T06:23:15.549Z,13.32
2023-04-30T06:25:42.446Z,13.46
2023-04-30T06:28:10.395Z,13.52
2023-04-30T06:30:37.412Z,13.51
2023-04-30T06:33:04.349Z,13.59
2023-04-30T06:35:31.324Z,13.76
2023-04-30T06:37:58.387Z,13.94
2023-04-30T06:40:25.246Z,14.10
2023-04-30T06:42:52.293Z,14.30
2023-04-30T06:45:19.854Z,14.48
2023-04-30T06:47:47.594Z,14.60
2023-04-30T06:50:16.032Z,14.77
2023-04-30T06:52:43.373Z,14.97
2023-04-30T06:55:10.203Z,15.18
2023-04-30T06:57:37.743Z,15.39
2023-04-30T07:00:09.066Z,15.72
2023-04-30T07:02:36.534Z,16.11
2023-04-30T07:05:03.599Z,16.45
2023-04-30T07:07:30.431Z,16.85
2023-04-30T07:09:57.582Z,17.23
2023-04-30T07:12:24.822Z,17.28
2023-04-30T07:14:51.753Z,17.22
2023-04-30T07:17:18.647Z,17.03
2023-04-30T07:19:45.896Z,16.72
2023-04-30T07:22:12.773Z,16.38
2023-04-30T07:24:39.792Z,16.13
2023-04-30T07:27:07.839Z,16.00
2023-04-30T07:29:35.698Z,15.92
2023-04-30T07:32:03.393Z,15.88
2023-04-30T07:34:30.325Z,15.90
2023-04-30T07:36:57.228Z,16.06
2023-04-30T07:39:24.296Z,16.40
2023-04-30T07:41:51.154Z,16.95
2023-04-30T07:44:18.260Z,17.25
2023-04-30T07:46:45.113Z,17.44
2023-04-30T07:49:12.103Z,17.62
2023-04-30T07:51:39.745Z,17.71
2023-04-30T07:54:06.704Z,17.80
2023-04-30T07:56:36.822Z,17.84
2023-04-30T07:59:03.832Z,17.81
2023-04-30T08:01:30.841Z,17.80
2023-04-30T08:03:57.849Z,17.82
2023-04-30T08:06:27.910Z,17.74
2023-04-30T08:08:54.839Z,17.85
2023-04-30T08:11:21.978Z,18.14
2023-04-30T08:13:48.854Z,18.44
2023-04-30T08:16:16.372Z,18.61
2023-04-30T08:18:45.326Z,18.68
2023-04-30T08:21:13.261Z,18.88
2023-04-30T08:23:40.549Z,19.22
2023-04-30T08:26:07.418Z,19.60
2023-04-30T08:28:34.418Z,19.28
2023-04-30T08:31:01.332Z,18.98
2023-04-30T08:33:28.443Z,18.45
2023-04-30T08:35:55.476Z,18.24
2023-04-30T08:38:22.619Z,18.00
2023-04-30T08:41:03.980Z,18.02
2023-04-30T08:45:58.646Z,17.88
2023-04-30T08:48:25.573Z,17.72
2023-04-30T08:50:52.951Z,17.37
2023-04-30T08:53:21.861Z,17.13
2023-04-30T08:55:48.510Z,16.91
2023-04-30T08:58:15.459Z,16.67
2023-04-30T09:00:42.488Z,16.40
2023-04-30T09:03:09.658Z,16.12
2023-04-30T09:05:38.638Z,16.09
2023-04-30T09:08:07.668Z,16.12
2023-04-30T09:10:34.896Z,16.47
2023-04-30T09:13:04.119Z,16.78
2023-04-30T09:15:31.809Z,17.01
2023-04-30T09:18:18.770Z,17.38
2023-04-30T09:20:56.992Z,17.60
2023-04-30T09:23:24.357Z,17.85
2023-04-30T09:25:51.586Z,18.02
2023-04-30T09:28:18.596Z,18.00
2023-04-30T09:30:45.649Z,18.20
2023-04-30T09:33:12.680Z,18.19
2023-04-30T09:35:40.314Z,18.13
2023-04-30T09:38:07.254Z,18.10
2023-04-30T09:40:41.906Z,18.32
2023-04-30T09:43:09.068Z,18.55
2023-04-30T09:45:51.750Z,18.91
2023-04-30T09:48:21.760Z,19.17
2023-04-30T09:50:49.637Z,19.49
2023-04-30T09:53:19.436Z,19.72
2023-04-30T09:55:47.510Z,19.89
2023-04-30T09:58:15.446Z,19.90
2023-04-30T10:00:42.722Z,19.44
2023-04-30T10:03:12.064Z,19.42
2023-04-30T10:05:47.489Z,19.63
2023-04-30T10:08:37.410Z,19.16
2023-04-30T10:11:06.414Z,19.50
2023-04-30T10:13:49.063Z,20.00
2023-04-30T10:16:25.136Z,20.15
2023-04-30T10:18:52.303Z,20.16
2023-04-30T10:21:23.362Z,20.03
2023-04-30T10:23:50.341Z,19.88
2023-04-30T10:26:18.086Z,19.80
2023-04-30T10:28:45.179Z,20.10
2023-04-30T10:31:12.100Z,20.32
2023-04-30T10:34:05.973Z,20.25
2023-04-30T10:36:38.881Z,20.42
2023-04-30T10:39:05.789Z,20.79
2023-04-30T10:41:32.627Z,21.02
2023-04-30T10:44:02.153Z,21.05
2023-04-30T10:46:29.395Z,20.81
2023-04-30T10:48:56.449Z,20.40
2023-04-30T10:51:23.541Z,20.16
2023-04-30T10:53:53.237Z,20.03
2023-04-30T10:56:32.901Z,19.81
2023-04-30T10:59:03.678Z,19.67
2023-04-30T11:01:31.391Z,19.43
2023-04-30T11:04:11.577Z,19.27
2023-04-30T11:06:56.700Z,19.16
2023-04-30T11:09:43.425Z,19.02
2023-04-30T11:12:12.582Z,19.11
2023-04-30T11:14:44.300Z,19.14
2023-04-30T11:17:12.613Z,19.28
2023-04-30T11:20:01.184Z,19.40
2023-04-30T11:22:30.265Z,19.52
2023-04-30T11:24:59.926Z,19.48
2023-04-30T11:27:28.290Z,19.44
2023-04-30T11:29:58.874Z,19.22
2023-04-30T11:32:28.036Z,18.90
2023-04-30T11:34:55.215Z,18.42
2023-04-30T11:37:33.793Z,18.07
2023-04-30T11:40:13.288Z,17.83
2023-04-30T11:42:44.909Z,17.52
2023-04-30T11:45:14.464Z,17.53
2023-04-30T11:47:43.052Z,17.61
2023-04-30T11:50:10.992Z,17.64
2023-04-30T11:52:39.322Z,17.69
2023-04-30T11:55:17.135Z,17.60
2023-04-30T11:57:44.980Z,17.58
2023-04-30T12:00:13.754Z,17.57
2023-04-30T12:02:41.476Z,17.59
2023-04-30T12:05:22.409Z,17.50
2023-04-30T12:07:50.332Z,17.47
2023-04-30T12:10:18.887Z,17.45
2023-04-30T12:12:47.116Z,17.27
2023-04-30T12:15:16.183Z,17.12
2023-04-30T12:17:43.825Z,17.01
2023-04-30T12:20:13.046Z,16.89
2023-04-30T12:22:40.112Z,16.75
2023-04-30T12:25:10.244Z,16.80
2023-04-30T12:27:37.413Z,16.86
2023-04-30T12:30:08.482Z,16.93
2023-04-30T12:32:40.508Z,16.78
2023-04-30T12:35:08.720Z,16.60
2023-04-30T12:37:35.878Z,16.44
2023-04-30T12:40:03.044Z,16.47
2023-04-30T12:42:36.065Z,16.37
2023-04-30T12:45:04.037Z,16.38
2023-04-30T12:47:31.056Z,16.53
2023-04-30T12:49:58.181Z,16.64
2023-04-30T12:52:26.598Z,16.59
2023-04-30T12:54:54.884Z,16.34
2023-04-30T12:57:21.852Z,16.31
2023-04-30T12:59:59.826Z,16.34
2023-04-30T13:02:28.880Z,16.47
2023-04-30T13:04:57.120Z,16.47
2023-04-30T13:07:24.074Z,16.58
2023-04-30T13:09:51.633Z,16.59
2023-04-30T13:12:19.913Z,16.30
2023-04-30T13:14:46.845Z,16.06
2023-04-30T13:17:14.370Z,16.04
2023-04-30T13:19:42.031Z,15.97
2023-04-30T13:22:08.914Z,16.08
2023-04-30T13:24:36.258Z,16.10
2023-04-30T13:27:04.492Z,16.18
2023-04-30T13:29:32.041Z,16.12
2023-04-30T13:31:59.504Z,16.00
2023-04-30T13:34:26.351Z,15.95
2023-04-30T13:36:53.822Z,15.91
2023-04-30T13:39:22.116Z,15.82
2023-04-30T13:41:49.583Z,15.62
2023-04-30T13:44:17.421Z,15.39
2023-04-30T13:46:44.495Z,15.35
2023-04-30T13:49:11.722Z,15.26
2023-04-30T13:51:38.745Z,15.20
2023-04-30T13:54:05.766Z,15.25
2023-04-30T13:56:32.922Z,15.20
2023-04-30T13:59:00.172Z,15.31
2023-04-30T14:01:27.284Z,15.22
2023-04-30T14:03:55.059Z,15.17
2023-04-30T14:06:22.583Z,15.35
2023-04-30T14:08:49.657Z,15.55
2023-04-30T14:11:16.636Z,15.56
2023-04-30T14:13:43.531Z,15.55
2023-04-30T14:16:10.789Z,15.62
2023-04-30T14:18:37.826Z,15.68
2023-04-30T14:21:04.662Z,15.83
2023-04-30T14:23:31.551Z,15.94
2023-04-30T14:25:58.412Z,15.99
2023-04-30T14:28:25.347Z,16.01
2023-04-30T14:30:52.335Z,15.99
2023-04-30T14:33:19.334Z,15.98
2023-04-30T14:35:47.873Z,16.03
2023-04-30T14:38:15.275Z,16.05
2023-04-30T14:40:43.995Z,16.00
2023-04-30T14:43:11.065Z,16.03
2023-04-30T14:45:39.071Z,16.02
2023-04-30T14:48:06.370Z,16.08
2023-04-30T14:50:33.606Z,16.15
2023-04-30T14:53:00.426Z,16.14
2023-04-30T14:55:27.329Z,16.16
2023-04-30T14:57:54.641Z,16.13
2023-04-30T15:00:21.978Z,16.17
2023-04-30T15:02:49.049Z,16.15
2023-04-30T15:05:16.602Z,16.10
2023-04-30T15:07:43.600Z,16.14
2023-04-30T15:10:10.818Z,16.07
2023-04-30T15:12:37.631Z,15.99
2023-04-30T15:15:05.143Z,15.88
2023-04-30T15:17:37.325Z,15.79
2023-04-30T15:20:05.133Z,15.76
2023-04-30T15:22:32.199Z,15.76
2023-04-30T15:24:59.787Z,15.74
2023-04-30T15:27:30.816Z,15.80
2023-04-30T15:29:58.950Z,15.93
2023-04-30T15:32:25.943Z,16.06
2023-04-30T15:34:53.438Z,16.06
2023-04-30T15:37:21.231Z,15.99
2023-04-30T15:39:49.824Z,16.05
2023-04-30T15:42:16.991Z,16.06
2023-04-30T15:44:43.886Z,15.96
2023-04-30T15:47:11.728Z,16.00
2023-04-30T15:49:38.602Z,16.09
2023-04-30T15:52:05.990Z,16.09
2023-04-30T15:54:32.913Z,15.96
2023-04-30T15:56:59.870Z,15.83
2023-04-30T15:59:27.886Z,15.83
2023-04-30T16:01:55.058Z,15.90
2023-04-30T16:04:22.168Z,15.86
2023-04-30T16:06:49.497Z,15.91
2023-04-30T16:09:20.054Z,15.96
2023-04-30T16:11:51.099Z,15.98
2023-04-30T16:14:17.968Z,15.98
2023-04-30T16:16:45.021Z,15.93
2023-04-30T16:19:12.684Z,15.87
2023-04-30T16:21:39.623Z,15.85
2023-04-30T16:24:07.327Z,15.80
2023-04-30T16:26:35.155Z,15.86
2023-04-30T16:29:02.350Z,15.80
2023-04-30T16:31:29.532Z,15.75
2023-04-30T16:33:56.582Z,15.72
2023-04-30T16:36:23.710Z,15.70
2023-04-30T16:38:50.766Z,15.71
2023-04-30T16:41:17.754Z,15.74
2023-04-30T16:43:44.827Z,15.73
2023-04-30T16:46:11.875Z,15.72
2023-04-30T16:48:38.893Z,15.75
2023-04-30T16:51:07.738Z,15.75
2023-04-30T16:53:34.560Z,15.73
2023-04-30T16:56:01.634Z,15.70
2023-04-30T16:58:28.549Z,15.73
2023-04-30T17:00:56.287Z,15.71
2023-04-30T17:03:24.439Z,15.66
2023-04-30T17:05:52.584Z,15.68
2023-04-30T17:08:22.538Z,15.69
2023-04-30T17:10:49.395Z,15.70
2023-04-30T17:13:16.436Z,15.71
2023-04-30T17:15:43.740Z,15.74
2023-04-30T17:18:11.874Z,15.66
2023-04-30T17:20:38.883Z,15.65
2023-04-30T17:23:05.960Z,15.59
2023-04-30T17:25:33.947Z,15.59
2023-04-30T17:28:01.727Z,15.56
2023-04-30T17:30:29.155Z,15.48
2023-04-30T17:32:56.901Z,15.37
2023-04-30T17:35:24.269Z,15.34
2023-04-30T17:37:51.466Z,15.31
2023-04-30T17:40:18.677Z,15.24
2023-04-30T17:42:45.629Z,15.15
2023-04-30T17:45:12.577Z,15.07
2023-04-30T17:47:39.585Z,14.96
2023-04-30T17:50:08.662Z,14.93
2023-04-30T17:52:38.908Z,14.92
2023-04-30T17:55:07.876Z,14.91
2023-04-30T17:57:34.954Z,14.90
2023-04-30T18:00:02.120Z,14.81
2023-04-30T18:02:29.751Z,14.72
2023-04-30T18:04:56.730Z,14.66
2023-04-30T18:07:23.579Z,14.59
2023-04-30T18:09:51.092Z,14.51
2023-04-30T18:12:18.152Z,14.47
2023-04-30T18:14:45.452Z,14.44
2023-04-30T18:17:12.754Z,14.37
2023-04-30T18:19:44.177Z,14.33
2023-04-30T18:22:14.288Z,14.30
2023-04-30T18:24:42.600Z,14.24
2023-04-30T18:27:09.499Z,14.20
2023-04-30T18:29:36.873Z,14.11
2023-04-30T18:32:03.949Z,14.03
2023-04-30T18:34:31.295Z,14.03
2023-04-30T18:36:58.089Z,14.02
2023-04-30T18:39:25.131Z,14.05
2023-04-30T18:41:52.275Z,14.08
2023-04-30T18:44:19.414Z,14.06
2023-04-30T18:46:46.424Z,13.98
2023-04-30T18:49:13.746Z,13.94
2023-04-30T18:51:41.214Z,13.90
2023-04-30T18:54:08.057Z,13.89
2023-04-30T18:56:36.023Z,13.87
2023-04-30T18:59:02.932Z,13.83
2023-04-30T19:01:29.868Z,13.78
2023-04-30T19:03:56.815Z,13.75
2023-04-30T19:06:24.347Z,13.71
2023-04-30T19:08:51.324Z,13.72
2023-04-30T19:11:20.343Z,13.69
2023-04-30T19:13:47.368Z,13.68
2023-04-30T19:16:14.304Z,13.70
2023-04-30T19:18:41.415Z,13.66
2023-04-30T19:21:09.046Z,13.62
2023-04-30T19:23:36.133Z,13.53
2023-04-30T19:26:03.344Z,13.47
2023-04-30T19:28:30.206Z,13.43
2023-04-30T19:30:57.786Z,13.37
2023-04-30T19:33:25.097Z,13.32
2023-04-30T19:35:55.398Z,13.27
2023-04-30T19:38:22.336Z,13.26
2023-04-30T19:40:52.754Z,13.19
2023-04-30T19:43:20.359Z,13.04
2023-04-30T19:45:55.024Z,12.95
2023-04-30T19:48:22.488Z,12.97
2023-04-30T19:50:49.968Z,13.00
2023-04-30T19:53:17.287Z,13.03
2023-04-30T19:55:44.387Z,13.01
2023-04-30T19:58:11.299Z,13.02
2023-04-30T20:00:41.101Z,13.07
2023-04-30T20:03:08.238Z,13.08
2023-04-30T20:05:36.377Z,13.01
2023-04-30T20:08:04.036Z,12.91
2023-04-30T20:10:31.703Z,12.81
2023-04-30T20:12:58.590Z,12.65
2023-04-30T20:15:26.261Z,12.54
2023-04-30T20:17:53.747Z,12.47
2023-04-30T20:20:23.860Z,12.38
2023-04-30T20:22:52.456Z,12.29
2023-04-30T20:25:20.263Z,12.26
2023-04-30T20:27:47.217Z,12.21
2023-04-30T20:30:14.221Z,12.20
2023-04-30T20:32:41.385Z,12.17
2023-04-30T20:35:08.882Z,12.21
2023-04-30T20:37:36.715Z,12.25
2023-04-30T20:40:04.273Z,12.27
2023-04-30T20:42:31.085Z,12.27
2023-04-30T20:44:57.980Z,12.23
2023-04-30T20:47:24.912Z,12.15
2023-04-30T20:49:51.877Z,12.09
2023-04-30T20:52:19.483Z,12.00
2023-04-30T20:54:46.412Z,11.88
2023-04-30T20:57:13.386Z,11.79
2023-04-30T20:59:41.845Z,11.76
2023-04-30T21:02:10.473Z,11.71
2023-04-30T21:04:37.320Z,11.65
2023-04-30T21:07:04.268Z,11.64
2023-04-30T21:09:33.195Z,11.58
2023-04-30T21:12:00.057Z,11.56
2023-04-30T21:14:26.923Z,11.51
2023-04-30T21:16:54.037Z,11.48
2023-04-30T21:19:20.913Z,11.45
2023-04-30T21:21:47.969Z,11.39
2023-04-30T21:24:14.917Z,11.36
2023-04-30T21:26:41.908Z,11.31
2023-04-30T21:29:09.569Z,11.29
2023-04-30T21:31:37.483Z,11.28
2023-04-30T21:34:04.385Z,11.24
2023-04-30T21:36:31.760Z,11.23
2023-04-30T21:38:58.779Z,11.26
2023-04-30T21:41:25.695Z,11.20
2023-04-30T21:43:52.642Z,11.15
2023-04-30T21:46:19.775Z,11.05
2023-04-30T21:48:49.713Z,10.98
2023-04-30T21:51:17.818Z,10.97
2023-04-30T21:53:44.997Z,10.95
2023-04-30T21:56:11.993Z,10.92
2023-04-30T21:58:39.606Z,10.89
2023-04-30T22:01:06.635Z,10.91
2023-04-30T22:03:34.640Z,10.88
2023-04-30T22:06:01.830Z,10.93
2023-04-30T22:08:28.951Z,10.95
2023-04-30T22:10:59.083Z,10.95
2023-04-30T22:13:29.886Z,10.93
2023-04-30T22:15:56.894Z,10.97
2023-04-30T22:18:24.755Z,11.00
2023-04-30T22:20:52.400Z,11.00
2023-04-30T22:23:21.477Z,10.96
2023-04-30T22:25:48.539Z,10.98
2023-04-30T22:28:19.646Z,11.00
2023-04-30T22:30:46.898Z,10.95
2023-04-30T22:33:13.990Z,10.92
2023-04-30T22:35:41.327Z,10.95
2023-04-30T22:38:08.244Z,10.96
2023-04-30T22:40:35.769Z,10.99
2023-04-30T22:43:02.706Z,10.96
2023-04-30T22:45:29.652Z,10.97
2023-04-30T22:47:56.792Z,10.99
2023-04-30T22:50:24.273Z,10.97
2023-04-30T22:52:51.827Z,10.99
2023-04-30T22:55:18.793Z,11.04
2023-04-30T22:57:45.839Z,11.05
2023-04-30T23:00:13.957Z,11.02
2023-04-30T23:02:40.870Z,11.03
2023-04-30T23:05:08.293Z,11.07
2023-04-30T23:07:35.285Z,11.13
2023-04-30T23:10:05.297Z,11.20
2023-04-30T23:12:32.369Z,11.25
2023-04-30T23:14:59.420Z,11.27
2023-04-30T23:17:27.151Z,11.31
2023-04-30T23:19:54.717Z,11.37
2023-04-30T23:22:22.394Z,11.41
2023-04-30T23:24:49.341Z,11.46
2023-04-30T23:27:16.956Z,11.45
2023-04-30T23:29:43.859Z,11.45
2023-04-30T23:32:10.809Z,11.44
2023-04-30T23:34:37.728Z,11.45
2023-04-30T23:37:04.589Z,11.45
2023-04-30T23:39:32.222Z,11.41
2023-04-30T23:41:59.150Z,11.40
2023-04-30T23:44:26.049Z,11.41
2023-04-30T23:46:53.234Z,11.41
2023-04-30T23:49:24.613Z,11.44
2023-04-30T23:51:51.991Z,11.44
2023-04-30T23:54:18.991Z,11.47
2023-04-30T23:56:46.685Z,11.48
2023-04-30T23:59:14.156Z,11.47
